Time;durP1;ratioP1;P1;durP2;ratioP2;P2;SDS_P1;SDS_P2;PMS_P1;PMS_P2;Temp;Humidity;BMP_temperature;BMP_pressure;BME280_temperature;BME280_humidity;BME280_pressure;Samples;Min_cycle;Max_cycle;Signal;HPM_P1;HPM_P2
2024/03/15 00:00:02;;;;;;;2.53;2.05;;;14.00;99.90;;;;;;5040659;28;20155;-34
2024/03/15 00:02:28;;;;;;;2.08;1.88;;;14.00;99.90;;;;;;5040653;28;20568;-34
2024/03/15 00:04:53;;;;;;;2.63;2.30;;;14.00;99.90;;;;;;5040336;28;20033;-33
2024/03/15 00:07:20;;;;;;;2.85;2.25;;;13.90;99.90;;;;;;5040458;28;20064;-32
2024/03/15 00:09:46;;;;;;;2.10;1.90;;;14.00;99.90;;;;;;5040594;28;20059;-31
2024/03/15 00:12:12;;;;;;;2.42;2.22;;;13.90;99.90;;;;;;5039875;28;20025;-34
2024/03/15 00:14:38;;;;;;;4.20;2.60;;;13.90;99.90;;;;;;5040632;28;20590;-35
2024/03/15 00:17:03;;;;;;;2.30;2.10;;;13.90;99.90;;;;;;5040959;28;20048;-35
2024/03/15 00:19:29;;;;;;;3.85;2.08;;;13.90;99.90;;;;;;5039779;28;20743;-35
2024/03/15 00:21:55;;;;;;;2.22;2.03;;;13.80;99.90;;;;;;5039670;28;20021;-36
2024/03/15 00:24:20;;;;;;;2.40;2.10;;;13.80;99.90;;;;;;5039932;28;20195;-35
2024/03/15 00:26:46;;;;;;;2.50;2.30;;;13.70;99.90;;;;;;5039150;28;20488;-33
2024/03/15 00:29:13;;;;;;;3.17;2.40;;;13.70;99.90;;;;;;5039563;28;20029;-30
2024/03/15 00:31:45;;;;;;;2.58;2.38;;;13.70;99.90;;;;;;5040466;28;20028;-31
2024/03/15 00:34:11;;;;;;;2.30;2.10;;;13.60;99.90;;;;;;5039142;28;20036;-33
2024/03/15 00:36:36;;;;;;;2.40;2.20;;;13.70;99.90;;;;;;5040299;28;20435;-32
2024/03/15 00:39:03;;;;;;;2.58;2.38;;;13.70;99.90;;;;;;5039811;28;20029;-35
2024/03/15 00:41:29;;;;;;;2.33;2.10;;;13.70;99.90;;;;;;5040036;28;20029;-34
2024/03/15 00:44:01;;;;;;;2.33;2.00;;;13.70;99.90;;;;;;5039976;28;20087;-35
2024/03/15 00:46:27;;;;;;;2.40;2.20;;;13.70;99.90;;;;;;5039434;28;20036;-32
2024/03/15 00:48:53;;;;;;;2.30;2.10;;;13.70;99.90;;;;;;5039773;28;20021;-34
2024/03/15 00:51:19;;;;;;;3.08;2.20;;;13.70;99.90;;;;;;5039588;28;20041;-34
2024/03/15 00:53:45;;;;;;;2.67;2.13;;;13.80;99.90;;;;;;5039027;28;20009;-32
2024/03/15 00:56:11;;;;;;;2.53;2.22;;;13.80;99.90;;;;;;5039716;28;20086;-37
2024/03/15 00:58:37;;;;;;;4.15;2.53;;;13.80;99.90;;;;;;5040458;28;20025;-34
2024/03/15 01:01:10;;;;;;;3.05;2.75;;;13.80;99.90;;;;;;5038696;28;20134;-36
2024/03/15 01:03:36;;;;;;;3.08;2.38;;;13.80;99.90;;;;;;5039506;28;20723;-31
2024/03/15 01:06:01;;;;;;;3.72;2.42;;;13.80;99.90;;;;;;5039992;28;20036;-36
2024/03/15 01:08:33;;;;;;;2.53;2.33;;;13.80;99.90;;;;;;5038563;28;20050;-34
2024/03/15 01:10:59;;;;;;;2.63;2.38;;;13.80;99.90;;;;;;5039585;28;20040;-36
2024/03/15 01:13:25;;;;;;;2.47;2.25;;;13.80;99.90;;;;;;5039488;28;20094;-35
2024/03/15 01:15:50;;;;;;;2.40;2.20;;;13.90;99.90;;;;;;5038790;28;20033;-33
2024/03/15 01:18:16;;;;;;;2.33;2.13;;;13.80;99.90;;;;;;5039227;28;20787;-35
2024/03/15 01:20:42;;;;;;;3.03;2.72;;;13.80;99.90;;;;;;5039264;28;20044;-32
2024/03/15 01:23:08;;;;;;;2.50;2.20;;;13.90;99.90;;;;;;5039490;28;20021;-35
2024/03/15 01:25:37;;;;;;;3.95;2.28;;;13.90;99.90;;;;;;5039091;28;20111;-30
2024/03/15 01:28:05;;;;;;;2.38;2.17;;;13.90;99.90;;;;;;5019431;28;20029;-35
2024/03/15 01:30:30;;;;;;;2.95;2.65;;;13.90;99.90;;;;;;5032695;28;20084;-32
2024/03/15 01:32:59;;;;;;;3.60;2.45;;;13.90;99.90;;;;;;5039382;28;20172;-33
2024/03/15 01:35:32;;;;;;;2.75;2.33;;;13.90;99.90;;;;;;5039389;28;20025;-35
2024/03/15 01:38:00;;;;;;;;;;;13.90;99.90;;;;;;5040003;28;20047;-34
2024/03/15 01:40:36;;;;;;;2.35;1.92;;;13.90;99.90;;;;;;5038659;28;20579;-33
2024/03/15 01:43:01;;;;;;;2.50;2.00;;;13.90;99.90;;;;;;5039149;28;20059;-35
2024/03/15 01:45:28;;;;;;;2.38;2.17;;;13.90;99.90;;;;;;5039313;28;20025;-34
2024/03/15 01:47:55;;;;;;;2.33;2.13;;;13.90;99.90;;;;;;5040076;28;20085;-37
2024/03/15 01:50:22;;;;;;;2.08;1.95;;;13.90;99.90;;;;;;5037817;28;20103;-39
2024/03/15 01:52:49;;;;;;;2.88;2.58;;;13.90;99.90;;;;;;5040184;28;20048;-32
2024/03/15 01:55:15;;;;;;;2.22;2.00;;;14.00;99.90;;;;;;5039022;28;20041;-34
2024/03/15 01:57:41;;;;;;;2.60;2.20;;;13.90;99.90;;;;;;5038850;28;20519;-33
2024/03/15 02:00:10;;;;;;;2.40;2.20;;;13.90;99.90;;;;;;5039089;28;20454;-33
2024/03/15 02:02:36;;;;;;;2.50;2.28;;;13.90;99.90;;;;;;5038620;28;20043;-35
2024/03/15 02:05:01;;;;;;;2.55;2.33;;;13.90;99.90;;;;;;5038990;28;20041;-37
2024/03/15 02:07:27;;;;;;;2.85;2.17;;;13.90;99.90;;;;;;5038840;28;20029;-35
2024/03/15 02:09:57;;;;;;;2.33;2.00;;;13.90;99.90;;;;;;5039064;28;20053;-35
2024/03/15 02:12:23;;;;;;;3.65;2.45;;;13.90;99.90;;;;;;5038486;28;20025;-33
2024/03/15 02:14:52;;;;;;;2.97;2.65;;;14.00;99.90;;;;;;5039633;28;20036;-34
2024/03/15 02:17:18;;;;;;;2.53;2.33;;;13.90;99.90;;;;;;5038273;28;20021;-35
2024/03/15 02:19:47;;;;;;;2.20;1.95;;;14.00;99.90;;;;;;5040269;28;20039;-36
2024/03/15 02:22:16;;;;;;;3.20;2.50;;;14.00;99.90;;;;;;5040676;28;20115;-30
2024/03/15 02:24:41;;;;;;;2.83;2.40;;;14.00;99.90;;;;;;5041554;28;20127;-32
2024/03/15 02:27:13;;;;;;;2.63;2.33;;;14.00;99.90;;;;;;5040669;28;20025;-31
2024/03/15 02:29:40;;;;;;;3.50;2.40;;;14.00;99.90;;;;;;5040314;28;20110;-34
2024/03/15 02:32:06;;;;;;;3.53;2.22;;;14.00;99.90;;;;;;5040164;28;20055;-34
2024/03/15 02:34:34;;;;;;;3.30;2.67;;;13.90;99.90;;;;;;5041674;28;20063;-33
2024/03/15 02:37:03;;;;;;;2.40;2.20;;;13.90;99.90;;;;;;5041946;28;20037;-29
2024/03/15 02:39:29;;;;;;;2.70;2.20;;;13.90;99.90;;;;;;5041369;28;20250;-32
2024/03/15 02:41:56;;;;;;;2.60;2.40;;;13.90;99.90;;;;;;5042908;28;20025;-32
2024/03/15 02:44:24;;;;;;;2.58;2.38;;;13.90;99.90;;;;;;5042187;28;20068;-34
2024/03/15 02:46:50;;;;;;;3.65;2.42;;;13.90;99.90;;;;;;5041842;28;20017;-32
2024/03/15 02:49:15;;;;;;;3.13;2.55;;;13.90;99.90;;;;;;5042259;28;20074;-36
2024/03/15 02:51:44;;;;;;;2.55;2.35;;;13.90;99.90;;;;;;5041903;28;20029;-36
2024/03/15 02:54:12;;;;;;;3.55;2.42;;;13.90;99.90;;;;;;5037452;28;20052;-34
2024/03/15 02:56:38;;;;;;;2.72;2.35;;;13.90;99.90;;;;;;5041952;28;20040;-34
2024/03/15 02:59:06;;;;;;;3.92;2.15;;;13.90;99.90;;;;;;5041450;28;20021;-36
2024/03/15 03:01:32;;;;;;;2.30;2.10;;;13.90;99.90;;;;;;5041603;28;20021;-32
2024/03/15 03:03:57;;;;;;;4.22;2.70;;;13.90;99.90;;;;;;5041682;28;20095;-33
2024/03/15 03:06:26;;;;;;;2.85;2.40;;;13.80;99.90;;;;;;5041531;28;20379;-33
2024/03/15 03:08:52;;;;;;;3.03;2.70;;;13.90;99.90;;;;;;5041230;28;20053;-35
2024/03/15 03:11:18;;;;;;;5.00;2.78;;;13.80;99.90;;;;;;5040145;28;20893;-34
2024/03/15 03:13:44;;;;;;;4.40;2.63;;;13.90;99.90;;;;;;5041799;28;20476;-33
2024/03/15 03:16:18;;;;;;;3.10;2.70;;;13.80;99.90;;;;;;5040732;28;20083;-31
2024/03/15 03:18:44;;;;;;;2.72;2.50;;;13.80;99.90;;;;;;5041679;28;20433;-34
2024/03/15 03:21:09;;;;;;;2.33;2.10;;;13.80;99.90;;;;;;5040425;28;20124;-34
2024/03/15 03:23:35;;;;;;;3.03;2.25;;;13.80;99.90;;;;;;5041143;28;20778;-33
2024/03/15 03:26:01;;;;;;;2.67;2.42;;;13.80;99.90;;;;;;5041172;28;20107;-34
2024/03/15 03:28:32;;;;;;;2.50;2.30;;;13.80;99.90;;;;;;5039929;28;20020;-35
2024/03/15 03:30:58;;;;;;;2.60;2.37;;;13.80;99.90;;;;;;5041708;28;20025;-33
2024/03/15 03:33:29;;;;;;;2.58;2.25;;;13.80;99.90;;;;;;5040995;28;20755;-33
2024/03/15 03:35:56;;;;;;;2.65;2.17;;;13.80;99.90;;;;;;5041200;28;20021;-32
2024/03/15 03:38:22;;;;;;;2.85;2.30;;;13.70;99.90;;;;;;5040249;28;20606;-32
2024/03/15 03:40:48;;;;;;;2.45;2.25;;;13.70;99.90;;;;;;5041247;28;20123;-33
2024/03/15 03:43:13;;;;;;;2.80;2.50;;;13.70;99.90;;;;;;5040399;28;20029;-35
2024/03/15 03:45:42;;;;;;;3.10;2.40;;;13.80;99.90;;;;;;5040362;28;20407;-30
2024/03/15 03:48:10;;;;;;;4.82;2.63;;;13.80;99.90;;;;;;5040614;28;20021;-36
2024/03/15 03:50:36;;;;;;;2.60;2.40;;;13.80;99.90;;;;;;5040174;28;20140;-34
2024/03/15 03:53:01;;;;;;;4.13;2.60;;;13.90;99.90;;;;;;5041105;28;20021;-34
2024/03/15 03:55:27;;;;;;;4.57;2.30;;;13.90;99.90;;;;;;5040063;28;20485;-30
2024/03/15 03:57:55;;;;;;;2.63;2.42;;;13.90;99.90;;;;;;5040176;28;20021;-32
2024/03/15 04:00:20;;;;;;;3.92;2.38;;;13.90;99.90;;;;;;5040075;28;20068;-36
2024/03/15 04:02:47;;;;;;;3.25;2.80;;;13.80;99.90;;;;;;5040943;28;20111;-34
2024/03/15 04:05:23;;;;;;;2.97;2.67;;;13.80;99.90;;;;;;5039701;28;20021;-36
2024/03/15 04:07:49;;;;;;;2.55;2.30;;;13.70;99.90;;;;;;5040218;28;20051;-32
2024/03/15 04:10:14;;;;;;;2.65;2.20;;;13.60;99.90;;;;;;5038793;28;20040;-34
2024/03/15 04:12:42;;;;;;;2.38;2.03;;;13.50;99.90;;;;;;5040816;28;20127;-30
2024/03/15 04:15:12;;;;;;;4.00;2.35;;;13.40;99.90;;;;;;5039744;28;20029;-34
2024/03/15 04:17:38;;;;;;;3.03;2.45;;;13.40;99.90;;;;;;5039869;28;20025;-34
2024/03/15 04:20:12;;;;;;;2.53;2.33;;;13.40;99.90;;;;;;5040660;28;20139;-30
2024/03/15 04:22:42;;;;;;;2.83;2.53;;;13.40;99.90;;;;;;5030343;28;20520;-33
2024/03/15 04:25:16;;;;;;;2.67;2.47;;;13.30;99.90;;;;;;5039693;28;20103;-36
2024/03/15 04:27:48;;;;;;;3.00;2.50;;;13.30;99.90;;;;;;5040922;28;20032;-33
2024/03/15 04:30:13;;;;;;;4.00;2.90;;;13.30;99.90;;;;;;5040515;28;20035;-32
2024/03/15 04:32:46;;;;;;;12.48;2.65;;;13.30;99.90;;;;;;5039696;28;20020;-33
2024/03/15 04:35:13;;;;;;;3.33;2.63;;;13.30;99.90;;;;;;5040293;28;20036;-32
2024/03/15 04:37:41;;;;;;;3.25;2.63;;;13.30;99.90;;;;;;5040167;28;20092;-34
2024/03/15 04:40:09;;;;;;;2.65;2.42;;;13.30;99.90;;;;;;5038950;28;20097;-33
2024/03/15 04:42:35;;;;;;;3.20;2.78;;;13.20;99.90;;;;;;5038766;28;20041;-35
2024/03/15 04:45:06;;;;;;;3.78;2.65;;;13.20;99.90;;;;;;5040589;28;20028;-32
2024/03/15 04:47:32;;;;;;;4.30;2.63;;;13.20;99.90;;;;;;5039253;28;20021;-34
2024/03/15 04:49:57;;;;;;;2.70;2.50;;;13.20;99.90;;;;;;5040835;28;20718;-34
2024/03/15 04:52:23;;;;;;;3.05;2.70;;;13.20;99.90;;;;;;5039134;28;20485;-34
2024/03/15 04:54:49;;;;;;;3.92;2.70;;;13.20;99.90;;;;;;5039797;28;20090;-35
2024/03/15 04:57:17;;;;;;;2.97;2.45;;;13.20;99.90;;;;;;5039769;28;20021;-31
2024/03/15 04:59:44;;;;;;;3.65;2.80;;;13.20;99.90;;;;;;5039940;28;20119;-32
2024/03/15 05:02:11;;;;;;;2.53;2.22;;;13.30;99.90;;;;;;5039178;28;20021;-35
2024/03/15 05:04:36;;;;;;;3.35;2.72;;;13.30;99.90;;;;;;5039070;28;20555;-35
2024/03/15 05:07:02;;;;;;;3.30;2.60;;;13.30;99.90;;;;;;5038985;28;20021;-31
2024/03/15 05:09:29;;;;;;;3.38;2.88;;;13.30;99.90;;;;;;5038661;28;20103;-35
2024/03/15 05:11:54;;;;;;;3.58;2.75;;;13.30;99.90;;;;;;5039802;28;20124;-35
2024/03/15 05:14:20;;;;;;;4.10;2.90;;;13.30;99.90;;;;;;5038576;28;20580;-33
2024/03/15 05:16:55;;;;;;;4.22;2.83;;;13.30;99.90;;;;;;5040097;28;20546;-33
2024/03/15 05:19:23;;;;;;;2.95;2.67;;;13.30;99.90;;;;;;5039562;28;20033;-32
2024/03/15 05:21:52;;;;;;;4.43;3.00;;;13.30;99.90;;;;;;5039622;28;20021;-39
2024/03/15 05:24:17;;;;;;;4.15;2.88;;;13.30;99.90;;;;;;5039155;28;20902;-35
2024/03/15 05:26:43;;;;;;;3.00;2.72;;;13.40;99.90;;;;;;5039407;28;20028;-29
2024/03/15 05:29:09;;;;;;;5.43;2.97;;;13.40;99.90;;;;;;5038317;28;20091;-33
2024/03/15 05:31:35;;;;;;;4.15;3.00;;;13.40;99.90;;;;;;5040017;28;20103;-31
2024/03/15 05:34:00;;;;;;;3.33;3.03;;;13.40;99.90;;;;;;5039485;28;20486;-32
2024/03/15 05:36:26;;;;;;;2.80;2.60;;;13.40;99.90;;;;;;5038682;28;20100;-34
2024/03/15 05:38:52;;;;;;;4.90;3.13;;;13.40;99.90;;;;;;5040105;28;20067;-37
2024/03/15 05:41:18;;;;;;;3.50;3.10;;;13.40;99.90;;;;;;5038806;28;20894;-31
2024/03/15 05:43:44;;;;;;;3.15;2.75;;;13.40;99.90;;;;;;5039396;28;20021;-31
2024/03/15 05:46:11;;;;;;;3.08;2.72;;;13.40;99.90;;;;;;5039168;28;20037;-31
2024/03/15 05:48:40;;;;;;;4.30;3.10;;;13.40;99.90;;;;;;5039074;28;20025;-33
2024/03/15 05:51:08;;;;;;;3.15;2.85;;;13.40;99.90;;;;;;5038626;28;20116;-35
2024/03/15 05:53:34;;;;;;;2.38;2.17;;;13.40;99.90;;;;;;5040659;28;20051;-33
2024/03/15 05:55:59;;;;;;;2.63;2.35;;;13.40;99.90;;;;;;5042511;28;20075;-33
2024/03/15 05:58:25;;;;;;;2.55;2.35;;;13.40;99.90;;;;;;5041987;28;20104;-34
2024/03/15 06:00:51;;;;;;;3.63;2.42;;;13.40;99.90;;;;;;5043347;28;20064;-34
2024/03/15 06:03:16;;;;;;;2.45;2.25;;;13.40;99.90;;;;;;5042125;28;20020;-30
2024/03/15 06:05:42;;;;;;;2.53;2.30;;;13.40;99.90;;;;;;5043441;28;20028;-35
2024/03/15 06:08:10;;;;;;;3.35;1.92;;;13.40;99.90;;;;;;5042891;28;20032;-32
2024/03/15 06:10:36;;;;;;;3.13;2.45;;;13.40;99.90;;;;;;5041240;28;20115;-34
2024/03/15 06:13:02;;;;;;;2.30;2.10;;;13.40;99.90;;;;;;5043171;28;20025;-34
2024/03/15 06:15:28;;;;;;;2.95;1.90;;;13.30;99.90;;;;;;5041822;28;20186;-34
2024/03/15 06:17:53;;;;;;;3.15;2.13;;;13.40;99.90;;;;;;5041830;28;20814;-33
2024/03/15 06:20:19;;;;;;;2.60;1.95;;;13.40;99.90;;;;;;5041899;28;20033;-32
2024/03/15 06:22:47;;;;;;;2.20;2.00;;;13.40;99.90;;;;;;5042392;28;20056;-31
2024/03/15 06:25:13;;;;;;;2.60;1.75;;;13.40;99.90;;;;;;5041487;28;20044;-33
2024/03/15 06:27:44;;;;;;;2.22;1.70;;;13.40;99.90;;;;;;5042615;28;20017;-32
2024/03/15 06:30:12;;;;;;;4.25;2.17;;;13.40;99.90;;;;;;5042937;28;20033;-33
2024/03/15 06:32:38;;;;;;;2.30;1.80;;;13.50;99.90;;;;;;5041689;28;20100;-35
2024/03/15 06:35:18;;;;;;;2.10;1.90;;;13.50;99.90;;;;;;5041553;28;20528;-32
2024/03/15 06:37:53;;;;;;;2.90;2.08;;;13.50;99.90;;;;;;5042831;28;20126;-32
2024/03/15 06:40:20;;;;;;;2.17;1.98;;;13.50;99.90;;;;;;5040556;28;20029;-33
2024/03/15 06:43:09;;;;;;;2.65;2.00;;;13.50;99.90;;;;;;5041488;28;20060;-31
2024/03/15 06:45:52;;;;;;;2.97;1.95;;;13.50;99.90;;;;;;5041520;28;20067;-35
2024/03/15 06:48:22;;;;;;;2.20;1.77;;;13.60;99.90;;;;;;5041727;28;20035;-34
2024/03/15 06:52:31;;;;;;;2.00;1.70;;;13.60;99.90;;;;;;5041328;28;20033;-36
2024/03/15 06:53:37;;;;;;;2.72;2.05;;;13.60;99.90;;;;;;5041080;28;20029;-36
2024/03/15 06:56:03;;;;;;;2.45;2.25;;;13.60;99.90;;;;;;5039834;28;20029;-37
2024/03/15 06:58:31;;;;;;;2.75;2.40;;;13.60;99.90;;;;;;5040838;28;20122;-34
2024/03/15 07:00:58;;;;;;;2.25;2.05;;;13.60;99.90;;;;;;5041084;28;20081;-33
2024/03/15 07:03:27;;;;;;;2.55;2.25;;;13.60;99.90;;;;;;5040580;28;20021;-34
2024/03/15 07:05:54;;;;;;;2.13;1.90;;;13.70;99.90;;;;;;5041218;28;20055;-35
2024/03/15 07:08:20;;;;;;;3.65;2.10;;;13.70;99.90;;;;;;5039900;28;20041;-35
2024/03/15 07:10:45;;;;;;;3.10;2.00;;;13.70;99.90;;;;;;5041346;28;20111;-33
2024/03/15 07:13:11;;;;;;;2.03;1.83;;;13.80;99.90;;;;;;5040740;28;20744;-36
2024/03/15 07:15:37;;;;;;;2.35;1.75;;;13.80;99.90;;;;;;5040599;28;20356;-31
2024/03/15 07:18:04;;;;;;;2.55;2.00;;;13.80;99.90;;;;;;5041691;28;20029;-34
2024/03/15 07:20:36;;;;;;;2.78;2.20;;;13.80;99.90;;;;;;5040285;28;20037;-35
2024/03/15 07:23:05;;;;;;;2.28;2.08;;;13.80;99.90;;;;;;5041404;28;20114;-32
2024/03/15 07:25:31;;;;;;;2.05;1.85;;;13.90;99.90;;;;;;5040230;28;20029;-34
2024/03/15 07:27:57;;;;;;;2.10;1.90;;;13.90;99.90;;;;;;5039367;28;20426;-30
2024/03/15 07:30:23;;;;;;;2.20;1.80;;;14.00;99.90;;;;;;5039882;28;20598;-36
2024/03/15 07:32:51;;;;;;;3.92;2.42;;;14.00;99.90;;;;;;5040168;28;20043;-35
2024/03/15 07:35:17;;;;;;;2.28;2.05;;;14.00;99.90;;;;;;5019332;28;20056;-33
2024/03/15 07:37:45;;;;;;;3.15;1.90;;;14.00;99.90;;;;;;5034425;28;20107;-36
2024/03/15 07:40:10;;;;;;;2.15;1.80;;;14.00;99.90;;;;;;5040094;28;20419;-35
2024/03/15 07:42:36;;;;;;;2.25;2.08;;;14.00;99.90;;;;;;5039894;28;20028;-35
2024/03/15 07:45:04;;;;;;;2.97;2.20;;;14.00;99.90;;;;;;5041120;28;20037;-32
2024/03/15 07:47:30;;;;;;;2.50;2.08;;;14.10;99.90;;;;;;5040158;28;20020;-35
2024/03/15 07:49:56;;;;;;;2.88;2.17;;;14.00;99.90;;;;;;5040365;28;20112;-34
2024/03/15 07:52:24;;;;;;;2.40;2.20;;;14.10;99.90;;;;;;5039736;28;20514;-32
2024/03/15 07:54:51;;;;;;;2.20;2.00;;;14.10;99.90;;;;;;5040171;28;20523;-33
2024/03/15 07:57:16;;;;;;;2.30;1.98;;;14.10;99.90;;;;;;5039794;28;20021;-34
2024/03/15 07:59:43;;;;;;;2.67;1.90;;;14.10;99.90;;;;;;5040738;28;20037;-33
2024/03/15 08:02:09;;;;;;;2.83;2.20;;;14.10;99.90;;;;;;5040583;28;20063;-35
2024/03/15 08:04:35;;;;;;;2.70;2.00;;;14.20;99.90;;;;;;5040337;28;20025;-37
2024/03/15 08:07:00;;;;;;;2.45;1.90;;;14.20;99.90;;;;;;5040516;28;20748;-34
2024/03/15 08:09:28;;;;;;;2.55;2.00;;;14.20;99.90;;;;;;5039140;28;20045;-34
2024/03/15 08:11:54;;;;;;;2.80;1.63;;;14.20;99.90;;;;;;5041253;28;20111;-33
2024/03/15 08:14:22;;;;;;;2.05;1.85;;;14.30;99.90;;;;;;5040021;28;20044;-34
2024/03/15 08:16:48;;;;;;;1.92;1.70;;;14.30;99.90;;;;;;5038862;28;20032;-33
2024/03/15 08:19:14;;;;;;;2.30;1.98;;;14.40;99.90;;;;;;5039560;28;20029;-34
2024/03/15 08:21:40;;;;;;;1.90;1.80;;;14.40;99.90;;;;;;5039824;28;20043;-30
2024/03/15 08:24:09;;;;;;;1.80;1.60;;;14.40;99.90;;;;;;5039477;28;20111;-36
2024/03/15 08:26:36;;;;;;;4.22;1.75;;;14.40;99.90;;;;;;5040088;28;20025;-36
2024/03/15 08:29:03;;;;;;;2.78;1.63;;;14.40;99.90;;;;;;5040049;28;20732;-34
2024/03/15 08:31:29;;;;;;;2.20;1.90;;;14.50;99.90;;;;;;5039070;28;20021;-36
2024/03/15 08:33:55;;;;;;;2.78;1.90;;;14.50;99.90;;;;;;5039963;28;20490;-34
2024/03/15 08:36:23;;;;;;;3.53;2.00;;;14.60;99.90;;;;;;5039597;28;20024;-33
2024/03/15 08:38:49;;;;;;;2.40;1.60;;;14.60;99.90;;;;;;5039325;28;20029;-35
2024/03/15 08:41:18;;;;;;;2.42;1.90;;;14.70;99.90;;;;;;5039464;28;20118;-36
2024/03/15 08:43:44;;;;;;;4.53;2.10;;;14.70;99.90;;;;;;5039981;28;20025;-32
2024/03/15 08:46:10;;;;;;;2.55;1.80;;;14.70;99.90;;;;;;5039098;28;20500;-35
2024/03/15 08:48:35;;;;;;;2.58;1.65;;;14.80;99.90;;;;;;5039687;28;20092;-32
2024/03/15 08:51:03;;;;;;;3.63;1.80;;;14.80;99.90;;;;;;5040194;28;20478;-35
2024/03/15 08:53:28;;;;;;;2.38;1.70;;;14.80;99.90;;;;;;5039015;28;20057;-29
2024/03/15 08:55:58;;;;;;;2.33;1.80;;;14.80;99.90;;;;;;5038987;28;20203;-32
2024/03/15 08:58:26;;;;;;;2.25;2.00;;;14.80;99.90;;;;;;5039279;28;20423;-31
2024/03/15 09:00:56;;;;;;;2.90;1.90;;;14.80;99.90;;;;;;5038893;28;20135;-33
2024/03/15 09:03:21;;;;;;;2.63;2.03;;;14.70;99.90;;;;;;5039199;28;20040;-35
2024/03/15 09:05:47;;;;;;;2.90;2.10;;;14.70;99.90;;;;;;5038902;28;20021;-34
2024/03/15 09:08:13;;;;;;;2.25;2.00;;;14.70;99.90;;;;;;5038753;28;20048;-32
2024/03/15 09:10:40;;;;;;;3.45;2.33;;;14.70;99.90;;;;;;5037639;28;20025;-30
2024/03/15 09:13:06;;;;;;;2.65;2.10;;;14.70;99.90;;;;;;5037168;28;20539;-35
2024/03/15 09:15:33;;;;;;;3.25;1.80;;;14.60;99.90;;;;;;5037680;28;20479;-34
2024/03/15 09:17:59;;;;;;;3.47;2.45;;;14.60;99.90;;;;;;5038615;28;20095;-30
2024/03/15 09:22:56;;;;;;;4.55;2.70;;;14.50;99.90;;;;;;5038593;28;20774;-36
2024/03/15 09:25:23;;;;;;;2.72;2.30;;;14.40;99.90;;;;;;5038424;28;20028;-35
2024/03/15 09:27:52;;;;;;;2.38;2.10;;;14.40;99.90;;;;;;5041161;28;20029;-33
2024/03/15 09:30:20;;;;;;;2.22;2.03;;;14.40;99.90;;;;;;5043422;28;20110;-33
2024/03/15 09:32:51;;;;;;;2.35;1.80;;;14.40;99.90;;;;;;5043343;28;20024;-34
2024/03/15 09:35:17;;;;;;;2.30;2.10;;;14.40;99.90;;;;;;5042836;28;20033;-36
2024/03/15 09:37:53;;;;;;;2.58;1.90;;;14.50;99.90;;;;;;5043390;28;20017;-30
2024/03/15 09:40:19;;;;;;;1.92;1.80;;;14.60;99.90;;;;;;5041556;28;20843;-35
2024/03/15 09:42:54;;;;;;;2.20;2.00;;;14.60;99.90;;;;;;5042816;28;20052;-33
2024/03/15 09:45:26;;;;;;;3.33;1.67;;;14.70;99.90;;;;;;5043310;28;20025;-35
2024/03/15 09:47:52;;;;;;;3.30;1.95;;;14.80;99.90;;;;;;5042031;28;20124;-36
2024/03/15 09:50:29;;;;;;;4.50;2.00;;;14.90;99.90;;;;;;5043117;28;20025;-31
2024/03/15 09:52:56;;;;;;;2.17;1.85;;;15.10;99.90;;;;;;5043147;28;20104;-36
2024/03/15 09:55:22;;;;;;;4.45;2.13;;;15.20;99.90;;;;;;5041929;28;20025;-32
2024/03/15 09:57:50;;;;;;;4.28;3.00;;;15.30;99.90;;;;;;5043163;28;20031;-32
2024/03/15 10:00:23;;;;;;;2.47;1.80;;;15.40;99.90;;;;;;5043499;28;20072;-35
2024/03/15 10:02:52;;;;;;;3.08;1.70;;;15.40;99.90;;;;;;5042446;28;20463;-35
2024/03/15 10:05:22;;;;;;;3.67;1.50;;;15.40;99.90;;;;;;5022624;28;20029;-32
2024/03/15 10:07:48;;;;;;;3.88;1.60;;;15.40;99.90;;;;;;5037524;28;20468;-36
2024/03/15 10:10:14;;;;;;;2.08;1.23;;;15.50;99.90;;;;;;5042005;28;20144;-34
2024/03/15 10:12:44;;;;;;;3.10;1.60;;;15.50;99.90;;;;;;5042598;28;20238;-30
2024/03/15 10:15:15;;;;;;;3.15;1.70;;;15.60;99.90;;;;;;5043058;28;20029;-33
2024/03/15 10:17:46;;;;;;;3.33;1.38;;;15.70;99.90;;;;;;5042346;28;20112;-33
2024/03/15 10:20:19;;;;;;;3.97;1.50;;;15.70;99.90;;;;;;5043144;28;20551;-34
2024/03/15 10:22:46;;;;;;;4.85;1.65;;;15.80;99.90;;;;;;5042619;28;20025;-35
2024/03/15 10:25:16;;;;;;;3.45;1.40;;;15.90;99.90;;;;;;5042424;28;20029;-34
2024/03/15 10:27:53;;;;;;;2.53;0.93;;;15.90;99.90;;;;;;5042277;28;20854;-35
2024/03/15 10:30:23;;;;;;;2.78;1.10;;;15.90;99.90;;;;;;5041514;28;20939;-36
2024/03/15 10:32:53;;;;;;;2.65;1.40;;;16.00;99.90;;;;;;5042387;28;20098;-31
2024/03/15 10:35:20;;;;;;;1.77;1.20;;;16.00;99.90;;;;;;5041697;28;20029;-33
2024/03/15 10:37:49;;;;;;;3.55;1.40;;;15.90;99.90;;;;;;5041802;28;20055;-34
2024/03/15 10:40:17;;;;;;;2.95;1.17;;;16.00;99.90;;;;;;5041640;28;20098;-32
2024/03/15 10:42:50;;;;;;;2.35;1.30;;;16.00;99.90;;;;;;5042088;28;20463;-33
2024/03/15 10:45:24;;;;;;;3.17;1.30;;;16.00;99.90;;;;;;5041057;28;20060;-33
2024/03/15 10:47:51;;;;;;;2.67;1.65;;;16.00;99.90;;;;;;5042567;28;20082;-32
2024/03/15 10:50:19;;;;;;;3.47;1.45;;;16.00;99.90;;;;;;5041858;28;20033;-32
2024/03/15 10:52:49;;;;;;;3.38;1.50;;;16.10;99.90;;;;;;5041178;28;20031;-34
2024/03/15 10:55:28;;;;;;;2.85;1.50;;;16.20;99.90;;;;;;5039068;28;20376;-34
2024/03/15 10:57:59;;;;;;;2.63;1.42;;;16.30;99.90;;;;;;5042522;28;20562;-35
2024/03/15 11:00:28;;;;;;;3.17;1.42;;;16.30;99.90;;;;;;5038003;28;20037;-33
2024/03/15 11:03:09;;;;;;;2.88;1.30;;;16.40;99.90;;;;;;5042266;28;20035;-36
2024/03/15 11:05:35;;;;;;;2.38;1.10;;;16.50;99.90;;;;;;5037631;28;20029;-32
2024/03/15 11:08:14;;;;;;;3.33;1.50;;;16.60;99.90;;;;;;5041617;28;20059;-32
2024/03/15 11:10:40;;;;;;;2.42;1.50;;;16.70;99.90;;;;;;5041053;28;20116;-33
2024/03/15 11:13:13;;;;;;;3.65;1.60;;;16.60;99.90;;;;;;5041277;28;20079;-36
2024/03/15 11:15:39;;;;;;;;;;;16.40;99.90;;;;;;5041789;28;20453;-35
2024/03/15 11:18:09;;;;;;;1.88;1.50;;;16.30;99.90;;;;;;5041609;28;19908;-35
2024/03/15 11:20:55;;;;;;;2.47;1.70;;;16.20;99.90;;;;;;5038849;28;20746;-33
2024/03/15 11:23:22;;;;;;;2.50;1.52;;;16.00;99.90;;;;;;5039484;28;20036;-36
2024/03/15 11:26:10;;;;;;;3.28;1.65;;;15.90;99.90;;;;;;5040078;28;20094;-35
2024/03/15 11:28:37;;;;;;;2.90;1.50;;;15.70;99.90;;;;;;5039348;28;20563;-31
2024/03/15 11:31:04;;;;;;;2.03;1.75;;;15.50;99.90;;;;;;5039713;28;20032;-36
2024/03/15 11:33:33;;;;;;;3.97;1.70;;;15.40;99.90;;;;;;5040168;28;20068;-33
2024/03/15 11:35:59;;;;;;;2.40;1.40;;;15.30;99.90;;;;;;5041516;28;20021;-35
2024/03/15 11:38:28;;;;;;;2.38;1.80;;;15.10;99.90;;;;;;5041458;28;20079;-34
2024/03/15 11:40:58;;;;;;;2.38;1.40;;;15.10;99.90;;;;;;5040076;28;20029;-34
2024/03/15 11:43:28;;;;;;;2.60;1.40;;;15.10;99.90;;;;;;5041302;28;20029;-33
2024/03/15 11:45:55;;;;;;;1.80;1.45;;;15.10;99.90;;;;;;5040821;28;20037;-32
2024/03/15 11:48:22;;;;;;;2.60;1.25;;;15.10;99.90;;;;;;5040302;28;20047;-33
2024/03/15 11:50:52;;;;;;;2.42;1.50;;;15.10;99.90;;;;;;5037110;28;20123;-35
2024/03/15 11:53:19;;;;;;;1.65;1.27;;;15.20;99.90;;;;;;5040740;28;20658;-34
2024/03/15 11:55:46;;;;;;;3.20;1.58;;;15.20;99.90;;;;;;5040544;28;20720;-36
2024/03/15 11:58:20;;;;;;;2.65;1.50;;;15.20;99.90;;;;;;5041065;28;20024;-36
2024/03/15 12:00:50;;;;;;;2.78;1.80;;;15.20;99.90;;;;;;5040059;28;20219;-33
2024/03/15 12:03:17;;;;;;;2.35;1.60;;;15.10;99.90;;;;;;5039955;28;20551;-32
2024/03/15 12:05:44;;;;;;;2.00;1.70;;;15.00;99.90;;;;;;5040531;28;20610;-34
2024/03/15 12:08:14;;;;;;;4.10;1.70;;;14.90;99.90;;;;;;5040634;28;20045;-35
2024/03/15 12:10:43;;;;;;;1.98;1.48;;;14.80;99.90;;;;;;5038065;28;20029;-33
2024/03/15 12:13:18;;;;;;;2.50;1.65;;;14.70;99.90;;;;;;5039020;28;20025;-38
2024/03/15 12:15:47;;;;;;;1.80;1.60;;;14.70;99.90;;;;;;5038916;28;20090;-29
2024/03/15 12:18:18;;;;;;;2.40;1.42;;;14.80;99.90;;;;;;5039029;28;20136;-34
2024/03/15 12:20:50;;;;;;;1.63;1.33;;;14.70;99.90;;;;;;5039057;28;20043;-33
2024/03/15 12:23:17;;;;;;;1.88;1.30;;;14.80;99.90;;;;;;5037936;28;20037;-33
2024/03/15 12:25:46;;;;;;;2.85;1.20;;;14.90;99.90;;;;;;5040409;28;20024;-34
2024/03/15 12:28:13;;;;;;;1.73;1.20;;;15.00;99.90;;;;;;5039335;28;20148;-36
2024/03/15 12:30:44;;;;;;;2.38;1.15;;;15.10;99.90;;;;;;5039660;28;20338;-35
2024/03/15 12:33:10;;;;;;;2.85;1.27;;;15.20;99.90;;;;;;5040677;28;20071;-33
2024/03/15 12:35:35;;;;;;;1.58;1.02;;;15.30;99.90;;;;;;5040660;28;20806;-35
2024/03/15 12:38:02;;;;;;;1.30;1.08;;;15.30;99.90;;;;;;5039970;28;20377;-34
2024/03/15 12:40:28;;;;;;;1.08;0.90;;;15.50;99.90;;;;;;5020580;28;20037;-32
2024/03/15 12:42:57;;;;;;;0.85;0.85;;;15.60;99.90;;;;;;5034062;28;20934;-33
2024/03/15 12:45:22;;;;;;;1.95;1.13;;;15.70;99.90;;;;;;5039115;28;20021;-32
2024/03/15 12:47:48;;;;;;;1.45;1.20;;;15.80;99.90;;;;;;5037908;28;20376;-37
2024/03/15 12:50:17;;;;;;;2.08;1.00;;;15.90;99.90;;;;;;5040050;28;20080;-31
2024/03/15 12:52:43;;;;;;;1.38;1.20;;;16.00;99.90;;;;;;5036202;28;20031;-35